createdAt,value
2022-08-08T00:01:00.014Z,46.54
2022-08-08T00:02:33.212Z,46.78
2022-08-08T00:05:09.419Z,46.42
2022-08-08T00:07:45.100Z,48.34
2022-08-08T00:10:18.518Z,47.39
2022-08-08T00:13:06.146Z,49.55
2022-08-08T00:15:57.407Z,49.29
2022-08-08T00:18:36.616Z,48.80
2022-08-08T00:21:07.747Z,49.39
2022-08-08T00:23:47.735Z,50.40
2022-08-08T00:26:29.705Z,47.57
2022-08-08T00:29:08.187Z,50.64
2022-08-08T00:32:21.136Z,48.13
2022-08-08T00:35:07.667Z,48.69
2022-08-08T00:37:57.092Z,49.36
2022-08-08T00:41:10.698Z,50.19
2022-08-08T00:44:15.375Z,48.76
2022-08-08T00:47:14.116Z,48.47
2022-08-08T00:50:34.232Z,48.20
2022-08-08T00:53:15.811Z,50.40
2022-08-08T00:56:19.926Z,50.47
2022-08-08T00:59:44.306Z,49.54
2022-08-08T01:04:01.425Z,49.18
2022-08-08T01:06:38.681Z,52.34
2022-08-08T01:09:48.574Z,50.24
2022-08-08T01:12:45.759Z,51.28
2022-08-08T01:15:47.327Z,50.80
2022-08-08T01:18:56.501Z,51.40
2022-08-08T01:22:15.602Z,50.92
2022-08-08T01:25:05.092Z,51.10
2022-08-08T01:28:02.103Z,51.89
2022-08-08T01:31:06.027Z,51.17
2022-08-08T01:34:36.796Z,53.33
2022-08-08T01:37:56.693Z,53.84
2022-08-08T01:40:38.114Z,52.14
2022-08-08T01:43:14.994Z,53.31
2022-08-08T01:45:58.379Z,51.94
2022-08-08T01:48:53.442Z,54.63
2022-08-08T01:52:33.441Z,52.47
2022-08-08T01:55:26.621Z,54.54
2022-08-08T01:58:10.711Z,53.48
2022-08-08T02:00:48.470Z,52.56
2022-08-08T02:03:55.311Z,51.96
2022-08-08T02:06:32.469Z,55.48
2022-08-08T02:10:02.581Z,53.56
2022-08-08T02:12:19.643Z,52.75
2022-08-08T02:14:59.050Z,54.46
2022-08-08T02:17:42.936Z,55.46
2022-08-08T02:21:00.912Z,53.48
2022-08-08T02:23:31.843Z,53.10
2022-08-08T02:26:11.034Z,55.21
2022-08-08T02:28:55.186Z,56.42
2022-08-08T02:31:59.344Z,56.02
2022-08-08T02:35:08.392Z,54.25
2022-08-08T02:38:25.397Z,54.99
2022-08-08T02:41:59.157Z,56.65
2022-08-08T02:44:56.911Z,57.04
2022-08-08T02:47:58.967Z,55.34
2022-08-08T02:50:55.686Z,56.54
2022-08-08T02:53:50.868Z,57.78
2022-08-08T02:56:57.682Z,57.53
2022-08-08T03:00:26.706Z,57.47
2022-08-08T03:05:01.699Z,58.06
2022-08-08T03:07:25.035Z,55.56
2022-08-08T03:10:33.051Z,55.03
2022-08-08T03:15:57.286Z,58.90
2022-08-08T03:16:44.190Z,57.51
2022-08-08T03:19:29.781Z,57.43
2022-08-08T03:21:59.822Z,60.32
2022-08-08T03:24:31.877Z,58.16
2022-08-08T03:27:21.741Z,59.34
2022-08-08T03:30:03.079Z,57.54
2022-08-08T03:32:56.906Z,60.92
2022-08-08T03:35:30.334Z,60.70
2022-08-08T03:38:53.688Z,60.82
2022-08-08T03:40:56.853Z,58.05
2022-08-08T03:43:28.695Z,58.18
2022-08-08T03:46:09.088Z,60.25
2022-08-08T03:49:56.677Z,59.85
2022-08-08T03:51:50.545Z,59.91
2022-08-08T03:54:51.680Z,60.83
2022-08-08T03:58:30.012Z,61.03
2022-08-08T04:00:07.683Z,56.32
2022-08-08T04:02:46.918Z,60.59
2022-08-08T04:05:19.532Z,59.04
2022-08-08T04:07:58.355Z,56.92
2022-08-08T04:10:31.928Z,56.98
2022-08-08T04:13:17.586Z,56.12
2022-08-08T04:15:54.871Z,56.91
2022-08-08T04:18:41.805Z,56.96
2022-08-08T04:21:11.657Z,59.01
2022-08-08T04:24:11.684Z,58.48
2022-08-08T04:26:40.036Z,58.78
2022-08-08T04:29:20.623Z,58.34
2022-08-08T04:31:59.743Z,58.28
2022-08-08T04:34:32.455Z,59.58
2022-08-08T04:37:17.563Z,58.16
2022-08-08T04:40:04.127Z,60.22
2022-08-08T04:42:46.689Z,60.79
2022-08-08T04:45:28.952Z,57.69
2022-08-08T04:48:00.488Z,57.17
2022-08-08T04:50:38.678Z,61.55
2022-08-08T04:53:52.098Z,63.92
2022-08-08T04:55:59.680Z,63.57
2022-08-08T04:58:31.627Z,64.60
2022-08-08T05:01:08.763Z,61.88
2022-08-08T05:04:09.780Z,60.81
2022-08-08T05:06:29.305Z,58.67
2022-08-08T05:09:02.442Z,65.34
2022-08-08T05:11:38.784Z,64.84
2022-08-08T05:14:08.260Z,62.65
2022-08-08T05:16:55.526Z,61.97
2022-08-08T05:20:09.784Z,64.14
2022-08-08T05:22:17.587Z,62.88
2022-08-08T05:24:49.338Z,59.39
2022-08-08T05:27:21.589Z,63.99
2022-08-08T05:29:51.807Z,62.77
2022-08-08T05:32:27.416Z,61.68
2022-08-08T05:35:04.447Z,64.06
2022-08-08T05:37:51.890Z,65.97
2022-08-08T05:40:28.765Z,64.78
2022-08-08T05:43:38.474Z,63.00
2022-08-08T05:46:03.757Z,65.43
2022-08-08T05:48:37.726Z,67.06
2022-08-08T05:51:14.689Z,64.65
2022-08-08T05:54:25.036Z,65.72
2022-08-08T05:56:42.293Z,67.46
2022-08-08T05:59:52.325Z,66.86
2022-08-08T06:02:34.695Z,65.53
2022-08-08T06:05:06.890Z,67.29
2022-08-08T06:08:02.523Z,66.96
2022-08-08T06:10:34.893Z,64.09
2022-08-08T06:13:08.567Z,65.12
2022-08-08T06:15:50.575Z,66.01
2022-08-08T06:18:28.343Z,63.94
2022-08-08T06:21:03.617Z,64.58
2022-08-08T06:23:49.019Z,66.28
2022-08-08T06:26:35.927Z,65.66
2022-08-08T06:29:48.810Z,65.85
2022-08-08T06:32:10.445Z,66.86
2022-08-08T06:34:56.334Z,62.98
2022-08-08T06:37:44.494Z,63.08
2022-08-08T06:40:16.870Z,64.21
2022-08-08T06:42:55.880Z,61.17
2022-08-08T06:45:33.903Z,63.84
2022-08-08T06:48:04.536Z,64.16
2022-08-08T06:50:38.682Z,64.04
2022-08-08T06:53:17.241Z,62.98
2022-08-08T06:56:02.835Z,63.42
2022-08-08T06:58:35.264Z,63.50
2022-08-08T07:01:11.722Z,61.73
2022-08-08T07:04:36.819Z,67.71
2022-08-08T07:06:57.517Z,67.21
2022-08-08T07:09:45.206Z,68.28
2022-08-08T07:12:41.236Z,64.19
2022-08-08T07:15:31.887Z,65.42
2022-08-08T07:18:35.621Z,64.53
2022-08-08T07:21:05.729Z,63.85
2022-08-08T07:24:01.960Z,65.74
2022-08-08T07:26:41.253Z,64.27
2022-08-08T07:29:58.776Z,62.24
2022-08-08T07:32:03.216Z,61.55
2022-08-08T07:34:32.408Z,61.14
2022-08-08T07:37:11.633Z,61.37
2022-08-08T07:39:45.636Z,62.18
2022-08-08T07:42:33.215Z,60.08
2022-08-08T07:45:02.563Z,58.23
2022-08-08T07:47:38.827Z,58.50
2022-08-08T07:50:10.758Z,59.05
2022-08-08T07:52:44.456Z,57.69
2022-08-08T07:55:23.417Z,55.66
2022-08-08T07:58:14.724Z,56.00
2022-08-08T08:00:47.585Z,54.50
2022-08-08T08:03:28.234Z,53.82
2022-08-08T08:05:59.761Z,55.73
2022-08-08T08:08:50.123Z,54.10
2022-08-08T08:11:38.054Z,52.91
2022-08-08T08:14:19.350Z,52.76
2022-08-08T08:16:50.607Z,52.22
2022-08-08T08:19:26.843Z,53.52
2022-08-08T08:22:02.409Z,52.06
2022-08-08T08:24:42.905Z,53.00
2022-08-08T08:27:14.794Z,51.14
2022-08-08T08:29:51.955Z,48.97
2022-08-08T08:32:31.518Z,50.33
2022-08-08T08:35:06.577Z,48.42
2022-08-08T08:37:52.996Z,48.91
2022-08-08T08:40:25.451Z,49.13
2022-08-08T08:42:57.039Z,49.44
2022-08-08T08:45:27.341Z,49.63
2022-08-08T08:48:01.450Z,48.78
2022-08-08T08:50:41.012Z,48.89
2022-08-08T08:53:55.195Z,50.00
2022-08-08T08:56:13.085Z,48.94
2022-08-08T08:58:46.954Z,47.14
2022-08-08T09:01:25.332Z,47.07
2022-08-08T09:04:00.710Z,46.84
2022-08-08T09:06:40.514Z,47.05
2022-08-08T09:09:35.314Z,47.32
2022-08-08T09:12:13.074Z,45.52
2022-08-08T09:14:47.658Z,45.19
2022-08-08T09:17:41.124Z,44.67
2022-08-08T09:22:02.281Z,45.16
2022-08-08T09:23:04.376Z,46.51
2022-08-08T09:25:58.462Z,45.64
2022-08-08T09:28:37.350Z,44.29
2022-08-08T09:31:12.302Z,45.17
2022-08-08T09:34:14.686Z,43.36
2022-08-08T09:36:40.184Z,42.27
2022-08-08T09:39:22.556Z,40.58
2022-08-08T09:42:19.875Z,43.52
2022-08-08T09:45:03.715Z,42.06
2022-08-08T09:48:04.895Z,42.71
2022-08-08T09:50:28.034Z,42.74
2022-08-08T09:53:02.197Z,40.60
2022-08-08T09:56:03.774Z,40.68
2022-08-08T09:58:40.485Z,41.10
2022-08-08T10:01:14.986Z,41.25
2022-08-08T10:04:02.338Z,39.35
2022-08-08T10:06:42.255Z,40.00
2022-08-08T10:09:13.427Z,37.45
2022-08-08T10:12:27.004Z,39.34
2022-08-08T10:14:39.572Z,40.21
2022-08-08T10:17:56.789Z,39.39
2022-08-08T10:20:17.084Z,38.79
2022-08-08T10:22:55.121Z,39.74
2022-08-08T10:25:25.786Z,39.36
2022-08-08T10:28:08.170Z,39.57
2022-08-08T10:30:59.913Z,38.96
2022-08-08T10:33:38.540Z,38.29
2022-08-08T10:36:26.076Z,38.16
2022-08-08T10:39:03.643Z,37.13
2022-08-08T10:41:58.916Z,37.45
2022-08-08T10:44:30.651Z,37.70
2022-08-08T10:47:10.022Z,36.81
2022-08-08T10:50:02.120Z,38.05
2022-08-08T10:52:33.218Z,37.04
2022-08-08T10:55:05.246Z,36.79
2022-08-08T10:57:45.048Z,37.48
2022-08-08T11:00:23.327Z,37.52
2022-08-08T11:02:54.310Z,36.16
2022-08-08T11:05:24.165Z,36.46
2022-08-08T11:08:31.362Z,38.77
2022-08-08T11:10:43.598Z,37.34
2022-08-08T11:13:29.663Z,36.82
2022-08-08T11:16:07.481Z,36.55
2022-08-08T11:18:37.781Z,35.67
2022-08-08T11:21:10.316Z,34.69
2022-08-08T11:24:02.139Z,37.13
2022-08-08T11:26:32.602Z,37.24
2022-08-08T11:29:04.450Z,35.55
2022-08-08T11:31:43.162Z,36.12
2022-08-08T11:34:24.516Z,35.12
2022-08-08T11:37:15.266Z,34.81
2022-08-08T11:39:57.143Z,34.68
2022-08-08T11:42:30.878Z,36.69
2022-08-08T11:45:00.539Z,36.30
2022-08-08T11:47:39.690Z,35.57
2022-08-08T11:50:23.141Z,37.13
2022-08-08T11:52:54.491Z,35.02
2022-08-08T11:55:26.756Z,36.42
2022-08-08T11:58:14.854Z,36.15
2022-08-08T12:00:48.047Z,34.34
2022-08-08T12:03:22.201Z,35.29
2022-08-08T12:05:52.806Z,34.87
2022-08-08T12:08:33.652Z,33.36
2022-08-08T12:11:04.669Z,33.56
2022-08-08T12:14:02.989Z,32.38
2022-08-08T12:16:30.194Z,32.89
2022-08-08T12:19:05.697Z,32.83
2022-08-08T12:22:00.318Z,33.31
2022-08-08T12:24:27.887Z,33.65
2022-08-08T12:26:57.066Z,32.21
2022-08-08T12:29:40.622Z,32.37
2022-08-08T12:32:13.562Z,31.48
2022-08-08T12:34:53.856Z,31.07
2022-08-08T12:37:41.586Z,29.69
2022-08-08T12:40:22.897Z,31.88
2022-08-08T12:42:53.733Z,30.76
2022-08-08T12:46:00.014Z,30.35
2022-08-08T12:48:36.905Z,30.02
2022-08-08T12:51:11.330Z,30.74
2022-08-08T12:53:58.632Z,31.25
2022-08-08T12:56:35.499Z,32.21
2022-08-08T12:59:15.334Z,32.43
2022-08-08T13:01:50.330Z,33.35
2022-08-08T13:04:24.974Z,32.12
2022-08-08T13:06:55.786Z,33.69
2022-08-08T13:09:57.454Z,33.13
2022-08-08T13:12:30.284Z,33.54
2022-08-08T13:15:01.113Z,33.65
2022-08-08T13:18:08.671Z,34.58
2022-08-08T13:20:21.848Z,33.05
2022-08-08T13:22:51.608Z,33.22
2022-08-08T13:25:27.809Z,34.47
2022-08-08T13:28:00.584Z,34.71
2022-08-08T13:30:29.362Z,35.36
2022-08-08T13:32:59.299Z,35.53
2022-08-08T13:35:29.596Z,34.57
2022-08-08T13:38:08.523Z,34.84
2022-08-08T13:40:41.423Z,35.14
2022-08-08T13:43:15.844Z,35.40
2022-08-08T13:45:47.483Z,35.18
2022-08-08T13:48:19.689Z,35.86
2022-08-08T13:50:57.863Z,36.16
2022-08-08T13:53:53.365Z,35.75
2022-08-08T13:56:31.763Z,35.80
2022-08-08T13:59:01.258Z,35.69
2022-08-08T14:01:42.072Z,35.90
2022-08-08T14:04:22.491Z,35.62
2022-08-08T14:06:58.860Z,35.88
2022-08-08T14:10:05.409Z,35.64
2022-08-08T14:12:28.063Z,35.67
2022-08-08T14:14:58.939Z,36.33
2022-08-08T14:17:57.846Z,35.52
2022-08-08T14:20:56.989Z,35.27
2022-08-08T14:23:10.378Z,35.08
2022-08-08T14:25:54.078Z,34.62
2022-08-08T14:28:29.011Z,34.87
2022-08-08T14:31:09.075Z,36.00
2022-08-08T14:33:39.162Z,34.67
2022-08-08T14:36:11.468Z,35.06
2022-08-08T14:38:52.733Z,35.01
2022-08-08T14:41:53.503Z,35.47
2022-08-08T14:44:22.027Z,34.77
2022-08-08T14:47:01.322Z,34.80
2022-08-08T14:49:37.775Z,34.90
2022-08-08T14:52:23.862Z,34.84
2022-08-08T14:54:51.911Z,34.52
2022-08-08T14:57:24.173Z,34.87
2022-08-08T15:00:11.487Z,35.46
2022-08-08T15:02:58.988Z,36.70
2022-08-08T15:05:52.256Z,37.89
2022-08-08T15:08:35.621Z,38.14
2022-08-08T15:11:09.288Z,38.07
2022-08-08T15:14:01.936Z,37.80
2022-08-08T15:16:34.280Z,37.66
2022-08-08T15:19:05.211Z,38.14
2022-08-08T15:21:37.936Z,37.86
2022-08-08T15:24:16.098Z,37.65
2022-08-08T15:26:52.501Z,38.00
2022-08-08T15:29:22.461Z,38.00
2022-08-08T15:32:18.158Z,38.37
2022-08-08T15:34:42.150Z,39.01
2022-08-08T15:37:10.778Z,39.35
2022-08-08T15:39:41.372Z,38.84
2022-08-08T15:42:17.837Z,38.27
2022-08-08T15:44:58.706Z,38.84
2022-08-08T15:47:26.811Z,38.57
2022-08-08T15:49:56.472Z,38.82
2022-08-08T15:52:25.286Z,39.76
2022-08-08T15:54:54.707Z,38.80
2022-08-08T15:57:23.582Z,39.12
2022-08-08T16:00:25.501Z,39.45
2022-08-08T16:02:44.130Z,39.66
2022-08-08T16:05:21.115Z,39.63
2022-08-08T16:07:51.356Z,40.08
2022-08-08T16:13:14.551Z,39.80
2022-08-08T16:13:29.936Z,39.71
2022-08-08T16:16:09.652Z,40.47
2022-08-08T16:18:57.432Z,40.85
2022-08-08T16:21:33.293Z,41.11
2022-08-08T16:24:02.950Z,41.59
2022-08-08T16:26:35.303Z,41.15
2022-08-08T16:29:07.880Z,41.15
2022-08-08T16:31:37.347Z,41.14
2022-08-08T16:34:05.938Z,40.92
2022-08-08T16:36:36.492Z,41.41
2022-08-08T16:39:09.800Z,41.25
2022-08-08T16:41:50.969Z,41.54
2022-08-08T16:44:28.065Z,41.83
2022-08-08T16:47:16.930Z,41.58
2022-08-08T16:49:47.835Z,41.37
2022-08-08T16:55:22.449Z,41.19
2022-08-08T16:55:42.565Z,40.48
2022-08-08T16:58:14.085Z,40.97
2022-08-08T17:00:48.861Z,40.83
2022-08-08T17:03:25.016Z,40.27
2022-08-08T17:06:36.823Z,40.22
2022-08-08T17:08:56.522Z,40.09
2022-08-08T17:11:28.339Z,39.28
2022-08-08T17:14:19.078Z,39.50
2022-08-08T17:16:57.348Z,39.97
2022-08-08T17:19:29.020Z,40.11
2022-08-08T17:22:01.359Z,39.93
2022-08-08T17:24:33.174Z,40.12
2022-08-08T17:27:05.963Z,39.84
2022-08-08T17:29:36.212Z,40.49
2022-08-08T17:32:07.938Z,41.55
2022-08-08T17:34:53.943Z,41.98
2022-08-08T17:37:27.638Z,41.50
2022-08-08T17:40:05.683Z,42.83
2022-08-08T17:42:41.682Z,43.94
2022-08-08T17:45:22.702Z,44.32
2022-08-08T17:47:54.168Z,43.33
2022-08-08T17:50:23.729Z,44.33
2022-08-08T17:52:52.730Z,45.40
2022-08-08T17:56:05.612Z,47.01
2022-08-08T17:58:11.789Z,46.00
2022-08-08T18:00:41.543Z,47.01
2022-08-08T18:03:13.272Z,47.45
2022-08-08T18:05:47.912Z,47.28
2022-08-08T18:08:38.168Z,48.51
2022-08-08T18:11:08.398Z,48.43
2022-08-08T18:13:41.663Z,50.35
2022-08-08T18:16:11.127Z,50.36
2022-08-08T18:18:42.905Z,50.74
2022-08-08T18:21:35.355Z,50.66
2022-08-08T18:24:02.541Z,50.97
2022-08-08T18:26:33.317Z,51.12
2022-08-08T18:29:06.050Z,51.25
2022-08-08T18:31:34.265Z,51.71
2022-08-08T18:34:11.484Z,51.83
2022-08-08T18:36:54.911Z,52.67
2022-08-08T18:39:28.541Z,52.75
2022-08-08T18:42:03.019Z,53.75
2022-08-08T18:44:34.537Z,54.55
2022-08-08T18:47:03.049Z,54.46
2022-08-08T18:49:57.263Z,54.35
2022-08-08T18:52:22.802Z,54.25
2022-08-08T18:55:01.039Z,53.71
2022-08-08T18:57:44.821Z,55.77
2022-08-08T19:00:20.622Z,55.17
2022-08-08T19:02:55.191Z,56.20
2022-08-08T19:05:45.470Z,56.43
2022-08-08T19:08:25.429Z,56.72
2022-08-08T19:11:02.179Z,55.26
2022-08-08T19:13:53.730Z,56.31
2022-08-08T19:16:28.411Z,56.97
2022-08-08T19:19:03.210Z,57.18
2022-08-08T19:21:32.913Z,57.41
2022-08-08T19:24:05.538Z,56.86
2022-08-08T19:26:35.629Z,56.64
2022-08-08T19:29:08.276Z,56.85
2022-08-08T19:31:39.137Z,57.45
2022-08-08T19:34:36.379Z,55.96
2022-08-08T19:37:03.637Z,57.20
2022-08-08T19:39:35.163Z,56.29
2022-08-08T19:42:06.637Z,57.94
2022-08-08T19:44:45.338Z,58.93
2022-08-08T19:47:16.238Z,59.12
2022-08-08T19:49:59.576Z,58.64
2022-08-08T19:52:34.299Z,60.43
2022-08-08T19:55:05.106Z,60.04
2022-08-08T19:57:35.614Z,61.12
2022-08-08T20:00:11.407Z,62.13
2022-08-08T20:02:57.266Z,60.68
2022-08-08T20:06:14.972Z,62.90
2022-08-08T20:08:30.274Z,63.15
2022-08-08T20:11:01.148Z,63.58
2022-08-08T20:14:32.011Z,64.09
2022-08-08T20:16:20.266Z,61.41
2022-08-08T20:18:53.909Z,63.74
2022-08-08T20:21:25.458Z,63.83
2022-08-08T20:23:58.123Z,64.39
2022-08-08T20:26:33.768Z,61.76
2022-08-08T20:29:03.537Z,64.31
2022-08-08T20:31:47.118Z,63.28
2022-08-08T20:34:30.629Z,64.97
2022-08-08T20:37:00.890Z,66.68
2022-08-08T20:39:39.742Z,67.43
2022-08-08T20:42:23.684Z,67.16
2022-08-08T20:44:58.222Z,68.25
2022-08-08T20:47:36.195Z,67.03
2022-08-08T20:50:09.927Z,67.67
2022-08-08T20:52:39.452Z,66.22
2022-08-08T20:55:16.205Z,69.72
2022-08-08T20:57:54.373Z,68.22
2022-08-08T21:00:26.671Z,67.35
2022-08-08T21:02:56.320Z,65.75
2022-08-08T21:05:31.844Z,68.07
2022-08-08T21:08:33.715Z,68.05
2022-08-08T21:10:50.094Z,69.92
2022-08-08T21:13:18.230Z,68.59
2022-08-08T21:16:05.586Z,69.75
2022-08-08T21:18:35.882Z,70.05
2022-08-08T21:21:20.675Z,69.08
2022-08-08T21:24:03.870Z,69.49
2022-08-08T21:26:35.401Z,69.72
2022-08-08T21:29:03.466Z,71.61
2022-08-08T21:31:53.219Z,69.79
2022-08-08T21:34:21.300Z,70.01
2022-08-08T21:36:53.027Z,69.58
2022-08-08T21:39:41.327Z,67.61
2022-08-08T21:42:10.127Z,70.96
2022-08-08T21:44:38.917Z,69.66
2022-08-08T21:48:20.238Z,70.90
2022-08-08T21:50:20.374Z,69.13
2022-08-08T21:54:31.914Z,70.92
2022-08-08T21:56:24.492Z,71.07
2022-08-08T21:58:37.516Z,71.56
2022-08-08T22:01:06.397Z,68.71
2022-08-08T22:03:54.462Z,70.04
2022-08-08T22:06:28.736Z,71.20
2022-08-08T22:09:02.725Z,71.75
2022-08-08T22:11:51.187Z,71.71
2022-08-08T22:14:26.845Z,71.14
2022-08-08T22:16:57.428Z,70.91
2022-08-08T22:20:12.776Z,70.90
2022-08-08T22:22:27.722Z,71.01
2022-08-08T22:24:58.363Z,70.15
2022-08-08T22:27:38.947Z,68.15
2022-08-08T22:30:29.659Z,70.71
2022-08-08T22:32:58.407Z,71.27
2022-08-08T22:36:05.545Z,68.97
2022-08-08T22:38:48.082Z,69.87
2022-08-08T22:41:23.257Z,70.69
2022-08-08T22:44:01.865Z,71.62
2022-08-08T22:46:33.064Z,70.24
2022-08-08T22:49:01.320Z,69.00
2022-08-08T22:51:34.798Z,70.02
2022-08-08T22:54:30.624Z,71.28
2022-08-08T22:56:59.769Z,70.68
2022-08-08T22:59:36.281Z,70.44
2022-08-08T23:02:19.614Z,71.70
2022-08-08T23:04:57.921Z,70.62
2022-08-08T23:07:56.820Z,70.10
2022-08-08T23:10:21.628Z,68.53
2022-08-08T23:12:53.682Z,69.32
2022-08-08T23:16:41.055Z,69.94
2022-08-08T23:18:11.527Z,69.08
2022-08-08T23:20:40.838Z,69.56
2022-08-08T23:23:11.671Z,70.09
2022-08-08T23:25:48.464Z,69.07
2022-08-08T23:28:19.135Z,68.49
2022-08-08T23:30:47.980Z,70.10
2022-08-08T23:33:21.150Z,69.77
2022-08-08T23:36:08.537Z,70.43
2022-08-08T23:38:41.841Z,69.70
2022-08-08T23:41:22.920Z,68.99
2022-08-08T23:43:56.418Z,68.70
2022-08-08T23:49:06.770Z,68.69
2022-08-08T23:49:15.213Z,69.97
2022-08-08T23:52:04.794Z,71.35
2022-08-08T23:54:42.159Z,72.35
2022-08-08T23:57:26.374Z,72.70
